Data for 06/06/2007

Time Sea-Level Adjusted Pressure Absolute Pressure Temperature Relative Humidity Dew Point   
(mb) (inHg) (mb) (inHg) (C) (F) (%) (C) (F)
00:05 1003 29.62 833 24.6 11.8 53.3 95 11.1 52
00:10 1003 29.62 832 24.57 11.9 53.4 95 11.1 52
00:15 1003 29.62 832 24.57 11.8 53.2 95 11 51.8
00:20 1003 29.62 832 24.57 11.8 53.2 95 11 51.7
00:25 1003 29.62 832 24.57 11.8 53.3 94 10.9 51.5
00:30 1003 29.62 832 24.57 11.9 53.3 94 10.9 51.6
00:35 1003 29.62 832 24.57 11.9 53.4 94 10.9 51.6
00:40 1003 29.62 832 24.57 12 53.5 94 11 51.8
00:45 1003 29.62 832 24.57 12 53.7 93 11 51.8
00:50 1003 29.62 832 24.57 12 53.6 92 10.8 51.4
00:55 1003 29.62 832 24.57 12.2 54 91 10.9 51.5
01:00 1002 29.59 832 24.57 12.3 54.1 92 11 51.7
01:05 1002 29.59 832 24.57 12.2 54 92 10.9 51.6
01:10 1002 29.59 832 24.57 12.2 53.9 92 10.9 51.6
01:15 1003 29.62 832 24.57 12.1 53.7 93 10.9 51.6
01:20 1003 29.62 832 24.57 12 53.6 92 10.7 51.2
01:25 1003 29.62 832 24.57 11.9 53.4 92 10.6 51.1
01:30 1003 29.62 832 24.57 11.9 53.4 92 10.6 51.1
01:35 1003 29.62 832 24.57 11.9 53.5 91 10.6 51
01:40 1003 29.62 832 24.57 11.9 53.3 91 10.4 50.7
01:45 1003 29.62 832 24.57 11.8 53.2 92 10.5 51
01:50 1003 29.62 832 24.57 11.8 53.3 91 10.4 50.7
01:55 1002 29.59 832 24.57 11.8 53.2 90 10.2 50.3
02:00 1002 29.59 831 24.54 11.9 53.4 90 10.3 50.6
02:05 1002 29.59 831 24.54 11.8 53.3 90 10.3 50.5
02:10 1002 29.59 831 24.54 11.8 53.2 90 10.2 50.3
02:15 1002 29.59 831 24.54 11.6 53 89 9.8 49.7
02:20 1002 29.59 831 24.54 11.5 52.6 88 9.5 49.1
02:25 1002 29.59 831 24.54 11.4 52.4 87 9.3 48.8
02:30 1002 29.59 831 24.54 11.3 52.3 87 9.2 48.5
02:35 1002 29.59 831 24.54 11.2 52.1 87 9.2 48.5
02:40 1002 29.59 831 24.54 11.1 51.9 87 9.1 48.3
02:45 1002 29.59 831 24.54 10.9 51.7 88 9 48.3
02:50 1002 29.59 831 24.54 10.9 51.5 88 8.9 48.1
02:55 1002 29.59 831 24.54 10.8 51.4 88 8.8 47.8
03:00 1002 29.59 831 24.54 10.7 51.2 88 8.9 47.9
03:05 1002 29.59 831 24.54 10.4 50.7 90 8.9 48
03:10 1002 29.59 831 24.54 10.2 50.3 90 8.7 47.7
03:15 1002 29.59 831 24.54 10.1 50.2 91 8.7 47.6
03:20 1002 29.59 831 24.54 10.2 50.4 89 8.6 47.4
03:25 1002 29.59 831 24.54 10.2 50.4 89 8.5 47.4
03:30 1002 29.59 831 24.54 10.2 50.4 88 8.3 47
03:35 1002 29.59 831 24.54 10.2 50.4 89 8.4 47.2
03:40 1001 29.56 831 24.54 10.2 50.3 88 8.3 47
03:45 1001 29.56 830 24.51 10.2 50.4 89 8.5 47.3
03:50 1001 29.56 830 24.51 10.3 50.5 89 8.6 47.4
03:55 1001 29.56 830 24.51 10.1 50.2 91 8.7 47.6
04:00 1001 29.56 830 24.51 9.9 49.8 92 8.6 47.5
04:05 1001 29.56 830 24.51 9.8 49.6 93 8.7 47.6
04:10 1001 29.56 830 24.51 9.8 49.6 92 8.6 47.4
04:15 1001 29.56 830 24.51 9.7 49.5 93 8.6 47.5
04:20 1001 29.56 830 24.51 9.8 49.6 92 8.6 47.5
04:25 1001 29.56 830 24.51 9.8 49.6 92 8.5 47.4
04:30 1001 29.56 830 24.51 9.8 49.6 92 8.6 47.4
04:35 1001 29.56 830 24.51 9.8 49.6 91 8.4 47.2
04:40 1001 29.56 830 24.51 9.7 49.5 91 8.3 47
04:45 1001 29.56 830 24.51 9.8 49.6 90 8.3 46.9
04:50 1001 29.56 830 24.51 9.7 49.4 90 8.2 46.7
04:55 1001 29.56 830 24.51 9.6 49.3 91 8.2 46.7
05:00 1001 29.56 830 24.51 9.7 49.4 91 8.3 46.9
05:05 1000 29.53 830 24.51 9.6 49.2 92 8.3 47
05:10 1001 29.56 830 24.51 9.5 49.1 92 8.3 46.9
05:15 1000 29.53 830 24.51 9.2 48.6 93 8.1 46.6
05:20 1000 29.53 830 24.51 9.1 48.4 93 8.1 46.6
05:25 1001 29.56 830 24.51 9 48.2 93 8 46.4
05:30 1000 29.53 830 24.51 9 48.2 94 8 46.4
05:35 1000 29.53 830 24.51 9 48.1 93 7.9 46.3
05:40 1000 29.53 830 24.51 8.9 48.1 93 7.9 46.2
05:45 1000 29.53 830 24.51 8.9 47.9 92 7.7 45.8
05:50 1000 29.53 830 24.51 8.8 47.8 92 7.5 45.5
05:55 1000 29.53 830 24.51 8.8 47.8 91 7.4 45.4
06:00 1000 29.53 830 24.51 8.7 47.7 91 7.3 45.2
06:05 1000 29.53 830 24.51 8.7 47.7 91 7.3 45.1
06:10 1000 29.53 829 24.48 8.6 47.5 90 7.1 44.7
06:15 1000 29.53 829 24.48 8.7 47.6 90 7.1 44.8
06:20 1000 29.53 829 24.48 8.7 47.6 89 7 44.6
06:25 1000 29.53 829 24.48 8.6 47.5 89 7 44.6
06:30 1000 29.53 829 24.48 8.5 47.2 89 6.7 44.1
06:35 1000 29.53 829 24.48 8.4 47.1 89 6.6 43.9
06:40 1000 29.53 830 24.51 8.4 47.1 89 6.7 44.1
06:45 1000 29.53 829 24.48 8.3 47 90 6.9 44.3
06:50 1000 29.53 829 24.48 8.4 47.1 89 6.7 44
06:55 1000 29.53 829 24.48 8 46.4 91 6.7 44
07:00 1000 29.53 829 24.48 7.9 46.2 92 6.7 44
07:05 1000 29.53 829 24.48 7.9 46.2 92 6.7 44
07:10 1000 29.53 829 24.48 7.9 46.1 91 6.5 43.7
07:15 1000 29.53 829 24.48 7.8 46.1 91 6.5 43.7
07:20 1000 29.53 829 24.48 7.7 45.8 90 6.2 43.1
07:25 1000 29.53 829 24.48 7.6 45.7 92 6.4 43.6
07:30 1000 29.53 829 24.48 7.6 45.7 92 6.3 43.4
07:35 1000 29.53 829 24.48 7.7 45.8 91 6.3 43.3
07:40 1000 29.53 829 24.48 7.6 45.6 91 6.2 43.2
07:45 1000 29.53 829 24.48 7.6 45.7 91 6.3 43.4
07:50 1000 29.53 829 24.48 7.6 45.6 91 6.2 43.2
07:55 1000 29.53 829 24.48 7.4 45.4 91 6.1 43
08:00 1000 29.53 829 24.48 7.5 45.4 90 5.9 42.7
08:05 1000 29.53 829 24.48 7.4 45.2 90 5.8 42.5
08:10 1000 29.53 829 24.48 7.3 45.2 90 5.8 42.4
08:15 1000 29.53 829 24.48 7.3 45.1 90 5.8 42.4
08:20 1000 29.53 830 24.51 7.3 45.1 91 5.9 42.5
08:25 1000 29.53 830 24.51 7.2 44.9 91 5.8 42.5
08:30 1000 29.53 830 24.51 7.2 44.9 91 5.7 42.3
08:35 1000 29.53 830 24.51 7.1 44.8 92 5.8 42.5
08:40 1000 29.53 829 24.48 7.1 44.8 92 5.9 42.6
08:45 1000 29.53 829 24.48 7.1 44.8 91 5.8 42.4
08:50 1000 29.53 829 24.48 7.2 44.9 92 5.9 42.7
08:55 1000 29.53 830 24.51 7.1 44.8 92 5.9 42.6
09:00 1000 29.53 830 24.51 7.1 44.7 92 5.9 42.6
09:05 1000 29.53 830 24.51 6.9 44.5 93 5.9 42.6
09:10 1000 29.53 830 24.51 6.9 44.5 93 5.8 42.5
09:15 1000 29.53 830 24.51 6.9 44.5 93 5.9 42.6
09:20 1000 29.53 830 24.51 7 44.5 93 5.9 42.6
09:25 1000 29.53 830 24.51 6.9 44.3 93 5.8 42.5
09:30 1000 29.53 830 24.51 6.9 44.3 93 5.8 42.5
09:35 1000 29.53 830 24.51 6.9 44.3 93 5.7 42.3
09:40 1000 29.53 830 24.51 6.9 44.4 92 5.7 42.3
09:45 1000 29.53 829 24.48 7 44.6 92 5.8 42.5
09:50 1000 29.53 829 24.48 7 44.7 91 5.7 42.3
09:55 1000 29.53 829 24.48 6.9 44.5 92 5.7 42.3
10:00 1000 29.53 829 24.48 6.7 44.1 93 5.6 42.1
10:05 1000 29.53 829 24.48 6.6 43.8 94 5.7 42.3
10:10 1000 29.53 829 24.48 6.6 43.8 94 5.7 42.3
10:15 1000 29.53 829 24.48 6.5 43.7 94 5.6 42.1
10:20 1000 29.53 829 24.48 6.5 43.7 95 5.7 42.2
10:25 1000 29.53 829 24.48 6.6 43.8 96 5.9 42.6
10:30 1000 29.53 829 24.48 6.6 43.8 95 5.9 42.5
10:35 1000 29.53 829 24.48 6.6 43.9 95 5.8 42.5
10:40 1000 29.53 829 24.48 6.5 43.6 95 5.8 42.4
10:45 1000 29.53 829 24.48 6.4 43.5 95 5.7 42.3
10:50 1000 29.53 829 24.48 6.5 43.7 95 5.7 42.3
10:55 1000 29.53 829 24.48 6.4 43.5 95 5.6 42.1
11:00 1000 29.53 829 24.48 6.5 43.7 95 5.7 42.2
11:05 1000 29.53 829 24.48 6.7 44 94 5.8 42.4
11:10 1000 29.53 829 24.48 6.7 44.1 94 5.8 42.4
11:15 1000 29.53 829 24.48 6.7 44.1 94 5.8 42.4
11:20 1000 29.53 829 24.48 6.7 44.1 93 5.7 42.3
11:25 1000 29.53 829 24.48 6.7 44.1 94 5.8 42.4
11:30 1000 29.53 829 24.48 6.7 44.1 93 5.7 42.3
11:35 1000 29.53 829 24.48 6.7 44.1 94 5.8 42.4
11:40 1000 29.53 829 24.48 6.8 44.2 94 5.8 42.5
11:45 1000 29.53 829 24.48 6.9 44.4 93 5.9 42.6
11:50 1000 29.53 829 24.48 6.8 44.3 94 5.9 42.6
11:55 1000 29.53 829 24.48 6.8 44.2 94 6 42.7
12:00 1000 29.53 829 24.48 6.8 44.2 94 5.9 42.7
12:05 1000 29.53 829 24.48 6.7 44.1 95 6 42.8
12:10 1000 29.53 829 24.48 6.7 44.1 95 6 42.7
12:15 1000 29.53 829 24.48 6.6 44 95 6 42.7
12:20 1000 29.53 829 24.48 6.7 44 96 6.1 43
12:25 1000 29.53 829 24.48 6.7 44 96 6.1 43
12:30 1000 29.53 829 24.48 6.7 44 96 6 42.8
12:35 1000 29.53 829 24.48 6.6 43.9 96 6 42.8
12:40 1000 29.53 829 24.48 6.6 43.9 96 6.1 43
12:45 1000 29.53 829 24.48 6.6 44 96 6.1 42.9
12:50 1000 29.53 829 24.48 6.6 43.9 96 6.1 42.9
12:55 1000 29.53 829 24.48 6.7 44 96 6.1 43
13:00 1000 29.53 829 24.48 6.6 44 96 6 42.9
13:05 1000 29.53 829 24.48 6.6 43.9 96 6 42.9
13:10 1000 29.53 829 24.48 6.7 44 96 6.1 42.9
13:15 1000 29.53 830 24.51 6.6 44 96 6 42.8
13:20 1000 29.53 830 24.51 6.6 43.9 96 5.9 42.7
13:25 1000 29.53 830 24.51 6.7 44.1 95 6 42.8
13:30 1000 29.53 830 24.51 6.7 44.1 95 6 42.8
13:35 1001 29.56 830 24.51 6.8 44.2 96 6.1 43
13:40 1001 29.56 830 24.51 6.8 44.2 95 6 42.8
13:45 1001 29.56 830 24.51 6.8 44.3 95 6 42.8
13:50 1001 29.56 830 24.51 6.8 44.2 94 6 42.7
13:55 1001 29.56 830 24.51 6.8 44.2 94 5.9 42.6
14:00 1001 29.56 830 24.51 6.8 44.2 94 5.9 42.6
14:05 1001 29.56 830 24.51 6.8 44.2 95 6 42.8
14:10 1001 29.56 830 24.51 6.8 44.2 94 5.9 42.6
14:15 1001 29.56 830 24.51 6.9 44.3 94 6 42.8
14:20 1001 29.56 831 24.54 7 44.7 94 6.1 43
14:25 1001 29.56 831 24.54 7 44.5 93 6 42.7
14:30 1001 29.56 831 24.54 6.8 44.3 93 5.9 42.5
14:35 1002 29.59 831 24.54 6.7 44.1 93 5.6 42.1
14:40 1002 29.59 831 24.54 6.6 43.9 94 5.6 42.2
14:45 1002 29.59 831 24.54 6.6 43.8 94 5.6 42.2
14:50 1002 29.59 831 24.54 6.5 43.8 94 5.6 42
14:55 1002 29.59 831 24.54 6.5 43.7 94 5.6 42
15:00 1002 29.59 831 24.54 6.5 43.6 94 5.5 41.9
15:05 1002 29.59 831 24.54 6.4 43.6 94 5.5 41.9
15:10 1002 29.59 831 24.54 6.4 43.5 94 5.4 41.8
15:15 1002 29.59 831 24.54 6.3 43.3 94 5.4 41.7
15:20 1002 29.59 831 24.54 6.2 43.2 93 5.2 41.3
15:25 1002 29.59 831 24.54 6.2 43.1 93 5.1 41.2
15:30 1002 29.59 831 24.54 6.2 43.1 93 5.1 41.3
15:35 1002 29.59 832 24.57 6.2 43.2 94 5.3 41.5
15:40 1002 29.59 832 24.57 6.2 43.2 93 5.2 41.3
15:45 1002 29.59 832 24.57 6.1 43 93 5.1 41.2
15:50 1003 29.62 832 24.57 6.1 43 93 5 41.1
15:55 1003 29.62 832 24.57 6.1 43 93 5.1 41.1
16:00 1003 29.62 832 24.57 6.1 43.1 92 5 41
16:05 1003 29.62 832 24.57 6.1 43 92 4.9 40.9
16:10 1003 29.62 832 24.57 6.2 43.2 92 5.1 41.1
16:15 1003 29.62 832 24.57 6.3 43.3 91 4.9 40.8
16:20 1003 29.62 832 24.57 6.1 43 91 4.8 40.6
16:25 1003 29.62 832 24.57 5.9 42.6 92 4.6 40.3
16:30 1003 29.62 832 24.57 6 42.8 92 4.7 40.5
16:35 1003 29.62 832 24.57 6 42.9 91 4.7 40.5
16:40 1003 29.62 832 24.57 5.9 42.7 91 4.5 40.2
16:45 1003 29.62 832 24.57 5.7 42.3 91 4.3 39.8
16:50 1003 29.62 832 24.57 5.6 42 92 4.3 39.7
16:55 1003 29.62 832 24.57 5.6 42.1 91 4.3 39.8
17:00 1003 29.62 832 24.57 5.5 41.9 90 4 39.2
17:05 1003 29.62 832 24.57 5.5 41.9 91 4.2 39.6
17:10 1003 29.62 833 24.6 5.5 41.9 91 4.2 39.5
17:15 1003 29.62 833 24.6 5.4 41.6 91 4 39.2
17:20 1003 29.62 833 24.6 5.2 41.4 91 3.9 39
17:25 1004 29.65 833 24.6 5.3 41.5 92 4.2 39.5
17:30 1004 29.65 833 24.6 5.4 41.7 93 4.3 39.8
17:35 1004 29.65 833 24.6 5.4 41.6 92 4.2 39.6
17:40 1004 29.65 833 24.6 5.2 41.4 92 4 39.2
17:45 1004 29.65 833 24.6 5.2 41.3 92 4.1 39.3
17:50 1004 29.65 833 24.6 5.2 41.4 93 4.1 39.4
17:55 1004 29.65 833 24.6 5.2 41.4 92 4 39.3
18:00 1004 29.65 833 24.6 5 41 93 4 39.1
18:05 1004 29.65 833 24.6 4.9 40.9 91 3.6 38.6
18:10 1004 29.65 833 24.6 4.6 40.4 91 3.4 38
18:15 1004 29.65 833 24.6 4.5 40 92 3.2 37.8
18:20 1004 29.65 833 24.6 4.5 40.1 92 3.3 37.9
18:25 1004 29.65 833 24.6 4.5 40.1 92 3.3 37.9
18:30 1004 29.65 834 24.63 4.6 40.3 93 3.6 38.5
18:35 1004 29.65 834 24.63 4.8 40.6 94 3.9 39
18:40 1004 29.65 834 24.63 5 40.9 94 4.1 39.3
18:45 1004 29.65 834 24.63 5 41.1 94 4.1 39.4
18:50 1005 29.68 834 24.63 5 41 94 4.1 39.3
18:55 1005 29.68 834 24.63 5 41 94 4.1 39.4
19:00 1005 29.68 834 24.63 5.1 41.1 94 4.1 39.4
19:05 1005 29.68 834 24.63 5.1 41.2 93 4.1 39.5
19:10 1005 29.68 834 24.63 5.1 41.3 93 4.1 39.5
19:15 1005 29.68 834 24.63 5.1 41.2 94 4.2 39.5
19:20 1005 29.68 834 24.63 5.2 41.3 94 4.3 39.7
19:25 1005 29.68 834 24.63 5.1 41.2 94 4.2 39.5
19:30 1005 29.68 834 24.63 5.1 41.2 94 4.2 39.6
19:35 1005 29.68 834 24.63 5.1 41.2 94 4.2 39.6
19:40 1005 29.68 834 24.63 5.1 41.1 94 4.2 39.5
19:45 1005 29.68 834 24.63 5.1 41.1 94 4.2 39.6
19:50 1005 29.68 834 24.63 5.1 41.2 95 4.4 39.9
19:55 1005 29.68 835 24.66 5.3 41.5 95 4.6 40.2
20:00 1005 29.68 835 24.66 5.3 41.5 95 4.5 40.1
20:05 1005 29.68 835 24.66 5.2 41.4 94 4.3 39.7
20:10 1006 29.71 835 24.66 5.1 41.1 93 4.1 39.4
20:15 1006 29.71 835 24.66 5 41 94 4.1 39.4
20:20 1006 29.71 835 24.66 5 40.9 94 4 39.3
20:25 1006 29.71 835 24.66 4.9 40.9 94 4 39.3
20:30 1006 29.71 835 24.66 4.8 40.7 94 4 39.2
20:35 1006 29.71 835 24.66 4.8 40.6 95 4 39.3
20:40 1006 29.71 835 24.66 4.8 40.6 95 4 39.2
20:45 1006 29.71 835 24.66 4.7 40.5 95 3.9 39.1
20:50 1006 29.71 835 24.66 4.7 40.5 95 3.9 39.1
20:55 1006 29.71 835 24.66 4.7 40.4 94 3.9 38.9
21:00 1006 29.71 835 24.66 4.6 40.2 94 3.7 38.7
21:05 1006 29.71 835 24.66 4.5 40.1 94 3.6 38.6
21:10 1006 29.71 835 24.66 4.4 40 94 3.6 38.5
21:15 1006 29.71 835 24.66 4.5 40 95 3.7 38.7
21:20 1006 29.71 835 24.66 4.4 39.9 94 3.6 38.4
21:25 1006 29.71 836 24.69 4.3 39.8 94 3.5 38.3
21:30 1006 29.71 836 24.69 4.2 39.6 94 3.4 38.1
21:35 1007 29.74 836 24.69 4.1 39.5 94 3.3 38
21:40 1007 29.74 836 24.69 4.1 39.3 94 3.2 37.8
21:45 1007 29.74 836 24.69 4 39.2 94 3.2 37.7
21:50 1007 29.74 836 24.69 4 39.2 94 3.1 37.6
21:55 1007 29.74 836 24.69 4 39.2 94 3.1 37.6
22:00 1007 29.74 836 24.69 4 39.2 94 3.1 37.7
22:05 1007 29.74 836 24.69 4 39.1 94 3.1 37.5
22:10 1007 29.74 836 24.69 4 39.2 94 3.1 37.5
22:15 1007 29.74 836 24.69 3.9 39.1 94 3 37.4
22:20 1007 29.74 836 24.69 3.9 39 93 2.9 37.2
22:25 1007 29.74 836 24.69 3.8 38.9 94 2.9 37.2
22:30 1007 29.74 836 24.69 3.8 38.9 94 2.9 37.3
22:35 1007 29.74 836 24.69 3.7 38.7 93 2.8 37
22:40 1007 29.74 836 24.69 3.7 38.6 94 2.8 37
22:45 1007 29.74 836 24.69 3.6 38.4 94 2.6 36.7
22:50 1007 29.74 836 24.69 3.5 38.4 94 2.6 36.8
22:55 1007 29.74 836 24.69 3.5 38.2 94 2.6 36.8
23:00 1007 29.74 836 24.69 3.4 38.2 94 2.5 36.5
23:05 1007 29.74 836 24.69 3.5 38.3 94 2.6 36.7
23:10 1007 29.74 836 24.69 3.5 38.4 93 2.5 36.4
23:15 1007 29.74 836 24.69 3.5 38.4 93 2.4 36.4
23:20 1007 29.74 837 24.72 3.5 38.4 92 2.4 36.3
23:25 1007 29.74 837 24.72 3.5 38.4 92 2.4 36.3
23:30 1007 29.74 837 24.72 3.5 38.4 93 2.5 36.4
23:35 1007 29.74 837 24.72 3.5 38.4 92 2.4 36.4
23:40 1007 29.74 837 24.72 3.6 38.4 92 2.4 36.4
23:45 1007 29.74 837 24.72 3.5 38.4 93 2.5 36.4
23:50 1007 29.74 837 24.72 3.5 38.4 93 2.5 36.5
23:55 1007 29.74 837 24.72 3.5 38.4 93 2.5 36.6
24:00 1008 29.77 837 24.72 3.5 38.3 93 2.4 36.4